Time;durP1;ratioP1;P1;durP2;ratioP2;P2;SDS_P1;SDS_P2;PMS_P1;PMS_P2;Temp;Humidity;BMP_temperature;BMP_pressure;BME280_temperature;BME280_humidity;BME280_pressure;Samples;Min_cycle;Max_cycle;Signal;HPM_P1;HPM_P2
2023/03/06 00:01:00;;;;;;;13.73;12.73;;;1.50;91.50;;;;;;4979924;28;20592;-91
2023/03/06 00:03:26;;;;;;;13.10;12.03;;;1.60;91.40;;;;;;4979400;28;20209;-92
2023/03/06 00:05:54;;;;;;;13.20;12.00;;;1.60;91.40;;;;;;4979436;28;20178;-92
2023/03/06 00:08:20;;;;;;;13.70;12.63;;;1.60;91.30;;;;;;4979285;28;20205;-92
2023/03/06 00:10:45;;;;;;;14.20;13.10;;;1.60;91.20;;;;;;4979118;28;20205;-91
2023/03/06 00:13:13;;;;;;;14.23;13.23;;;1.60;91.20;;;;;;4979278;28;20197;-92
2023/03/06 00:15:38;;;;;;;14.77;13.67;;;1.60;91.10;;;;;;4996386;28;20221;-91
2023/03/06 00:18:05;;;;;;;14.70;13.60;;;1.60;91.10;;;;;;4979023;28;20193;-92
2023/03/06 00:20:32;;;;;;;14.30;13.30;;;1.60;91.10;;;;;;4979097;28;20715;-92
2023/03/06 00:22:57;;;;;;;15.40;14.20;;;1.60;91.00;;;;;;4979132;28;20667;-92
2023/03/06 00:25:24;;;;;;;16.23;14.77;;;1.50;91.00;;;;;;4978777;28;20178;-92
2023/03/06 00:27:50;;;;;;;18.20;16.57;;;1.50;90.90;;;;;;4979035;28;20642;-92
2023/03/06 00:30:19;;;;;;;17.50;16.00;;;1.40;90.90;;;;;;4979221;28;20264;-92
2023/03/06 00:32:45;;;;;;;17.53;15.83;;;1.40;91.00;;;;;;4979122;28;20201;-93
2023/03/06 00:35:11;;;;;;;19.93;18.03;;;1.30;91.00;;;;;;4979153;28;20719;-92
2023/03/06 00:37:37;;;;;;;20.47;18.40;;;1.30;91.10;;;;;;4979275;28;20198;-93
2023/03/06 00:40:05;;;;;;;21.77;19.57;;;1.30;91.20;;;;;;4978946;28;20183;-92
2023/03/06 00:42:30;;;;;;;23.63;21.23;;;1.20;91.20;;;;;;4978821;28;20182;-92
2023/03/06 00:44:56;;;;;;;27.30;21.40;;;1.10;91.40;;;;;;4978723;28;20759;-92
2023/03/06 00:47:21;;;;;;;24.77;20.60;;;1.10;91.60;;;;;;4978930;28;20206;-92
2023/03/06 00:49:47;;;;;;;29.17;22.63;;;1.10;91.70;;;;;;4978908;28;20189;-92
2023/03/06 00:52:13;;;;;;;25.80;21.73;;;1.10;91.80;;;;;;4995868;28;20273;-92
2023/03/06 00:54:39;;;;;;;27.77;21.93;;;1.10;91.80;;;;;;4978318;28;20181;-92
2023/03/06 00:57:05;;;;;;;32.07;23.40;;;1.10;91.90;;;;;;4978436;28;20563;-92
2023/03/06 00:59:30;;;;;;;26.90;21.77;;;1.00;92.00;;;;;;4978993;28;20185;-92
2023/03/06 01:01:56;;;;;;;25.30;21.37;;;1.00;92.10;;;;;;4978293;28;20182;-91
2023/03/06 01:04:22;;;;;;;28.23;22.70;;;1.10;92.20;;;;;;4976837;28;20332;-90
2023/03/06 01:06:48;;;;;;;26.47;21.87;;;1.10;92.30;;;;;;4978403;28;20689;-91
2023/03/06 01:09:14;;;;;;;28.23;21.20;;;1.00;92.20;;;;;;4977905;28;20277;-91
2023/03/06 01:11:39;;;;;;;31.27;21.83;;;1.00;92.40;;;;;;4977847;28;20177;-92
2023/03/06 01:14:05;;;;;;;40.27;24.30;;;1.10;92.40;;;;;;4979318;28;20268;-92
2023/03/06 01:16:31;;;;;;;41.27;25.97;;;1.00;92.40;;;;;;4978371;28;20229;-92
2023/03/06 01:18:57;;;;;;;44.70;25.17;;;1.10;92.50;;;;;;4978627;28;20178;-91
2023/03/06 01:21:23;;;;;;;38.67;23.40;;;1.00;92.50;;;;;;4978681;28;20639;-92
2023/03/06 01:23:49;;;;;;;45.97;26.90;;;0.90;92.50;;;;;;4977959;28;20224;-89
2023/03/06 01:26:14;;;;;;;50.00;27.97;;;0.80;92.70;;;;;;4977408;28;20185;-89
2023/03/06 01:28:40;;;;;;;51.73;29.83;;;0.90;92.80;;;;;;4981111;28;20249;-93
2023/03/06 01:31:07;;;;;;;49.60;28.90;;;1.00;92.90;;;;;;4982182;28;20182;-93
2023/03/06 01:33:33;;;;;;;53.30;29.57;;;1.10;92.90;;;;;;4982441;28;20274;-92
2023/03/06 01:36:00;;;;;;;54.90;29.43;;;1.10;92.90;;;;;;4997803;28;20266;-92
2023/03/06 01:38:26;;;;;;;53.67;30.43;;;1.00;92.90;;;;;;4981570;28;20225;-91
2023/03/06 01:40:51;;;;;;;55.30;30.97;;;0.90;92.80;;;;;;4977675;28;20216;-90
2023/03/06 01:43:32;;;;;;;52.80;27.73;;;0.90;92.90;;;;;;4994956;28;20220;-90
2023/03/06 01:46:19;;;;;;;31.87;21.90;;;0.90;93.00;;;;;;4978017;28;20682;-91
2023/03/06 01:48:46;;;;;;;17.37;15.53;;;1.00;93.10;;;;;;4977313;28;20178;-91
2023/03/06 01:51:13;;;;;;;14.10;12.83;;;1.00;93.10;;;;;;4977381;28;20189;-90
2023/03/06 01:53:39;;;;;;;15.30;13.70;;;1.10;93.10;;;;;;4977155;28;20206;-91
2023/03/06 01:56:06;;;;;;;14.73;13.50;;;1.10;93.00;;;;;;4977329;28;20206;-91
2023/03/06 01:58:32;;;;;;;14.07;12.87;;;1.00;92.80;;;;;;4977397;28;20201;-90
2023/03/06 02:00:58;;;;;;;14.80;13.43;;;0.70;92.60;;;;;;4977135;28;20181;-91
2023/03/06 02:03:27;;;;;;;13.23;12.10;;;0.70;92.80;;;;;;4977008;28;20182;-90
2023/03/06 02:05:53;;;;;;;14.17;12.73;;;0.50;92.50;;;;;;4976784;28;20185;-90
2023/03/06 02:08:22;;;;;;;13.37;12.10;;;0.60;92.70;;;;;;4977184;28;20602;-90
2023/03/06 02:11:09;;;;;;;13.43;12.37;;;0.70;92.60;;;;;;4977094;28;20706;-90
2023/03/06 02:13:35;;;;;;;12.77;11.67;;;0.50;92.60;;;;;;4976602;28;20210;-90
2023/03/06 02:16:01;;;;;;;11.47;10.73;;;0.50;92.50;;;;;;4976409;28;20186;-90
2023/03/06 02:18:28;;;;;;;11.73;10.83;;;0.50;92.50;;;;;;4976713;28;20705;-90
2023/03/06 02:21:01;;;;;;;11.50;10.80;;;0.40;92.50;;;;;;4976591;28;20640;-90
2023/03/06 02:23:38;;;;;;;13.43;11.80;;;0.30;92.50;;;;;;4977050;28;20180;-90
2023/03/06 02:26:05;;;;;;;12.23;11.13;;;0.30;92.60;;;;;;4976873;28;20176;-90
2023/03/06 02:28:31;;;;;;;12.17;11.27;;;0.30;92.80;;;;;;4976666;28;20230;-90
2023/03/06 02:30:56;;;;;;;11.87;10.97;;;0.30;92.80;;;;;;4976776;28;20213;-90
2023/03/06 02:33:25;;;;;;;10.37;9.77;;;0.30;92.90;;;;;;4976628;28;20576;-90
2023/03/06 02:35:58;;;;;;;11.23;10.37;;;0.30;92.90;;;;;;4976942;28;20185;-91
2023/03/06 02:39:01;;;;;;;11.03;10.27;;;0.30;92.90;;;;;;4976622;28;20255;-90
2023/03/06 02:41:27;;;;;;;10.53;9.80;;;0.30;92.90;;;;;;4960399;28;20189;-90
2023/03/06 02:43:52;;;;;;;9.80;9.00;;;0.20;92.90;;;;;;4976637;28;20239;-90
2023/03/06 02:46:18;;;;;;;11.20;10.17;;;0.10;92.80;;;;;;4976674;28;20189;-90
2023/03/06 02:48:43;;;;;;;9.80;9.03;;;0.10;92.90;;;;;;4976648;28;20253;-90
2023/03/06 02:51:09;;;;;;;11.60;10.40;;;0.10;92.90;;;;;;4977393;28;20183;-91
2023/03/06 02:53:35;;;;;;;10.37;9.60;;;0.10;92.80;;;;;;4977626;28;20558;-90
2023/03/06 02:56:00;;;;;;;10.93;10.07;;;0.10;92.90;;;;;;4976497;28;20181;-91
2023/03/06 02:58:26;;;;;;;9.60;8.70;;;0.30;92.90;;;;;;4976332;28;20205;-91
2023/03/06 03:00:52;;;;;;;10.63;9.80;;;0.30;92.90;;;;;;4976429;28;20188;-91
2023/03/06 03:03:17;;;;;;;10.70;10.00;;;0.40;92.90;;;;;;4976657;28;20181;-90
2023/03/06 03:05:43;;;;;;;11.07;10.00;;;0.30;92.80;;;;;;4976796;28;20303;-91
2023/03/06 03:08:09;;;;;;;11.50;10.50;;;0.30;92.80;;;;;;4976289;28;20295;-91
2023/03/06 03:10:34;;;;;;;11.63;10.53;;;0.30;92.70;;;;;;4976831;28;20191;-90
2023/03/06 03:13:00;;;;;;;11.83;10.70;;;0.10;92.60;;;;;;4977066;28;20217;-91
2023/03/06 03:15:25;;;;;;;11.70;10.60;;;0.10;92.60;;;;;;4976589;28;20640;-91
2023/03/06 03:17:51;;;;;;;11.37;10.47;;;0.00;92.50;;;;;;4976727;28;20570;-91
2023/03/06 03:20:19;;;;;;;12.73;11.30;;;-0.10;92.50;;;;;;4976429;28;20181;-90
2023/03/06 03:22:53;;;;;;;10.80;9.97;;;-0.10;92.50;;;;;;4976380;28;20280;-91
2023/03/06 03:25:20;;;;;;;13.13;12.13;;;-0.20;92.40;;;;;;4976310;28;20192;-91
2023/03/06 03:27:46;;;;;;;13.83;12.50;;;-0.30;92.50;;;;;;4977452;28;20204;-91
2023/03/06 03:30:12;;;;;;;12.30;11.33;;;-0.20;92.60;;;;;;4980508;28;20601;-91
2023/03/06 03:32:38;;;;;;;11.20;10.27;;;-0.10;92.50;;;;;;4980077;28;20252;-91
2023/03/06 03:35:07;;;;;;;12.67;11.40;;;0.00;92.60;;;;;;4979944;28;20181;-91
2023/03/06 03:37:33;;;;;;;11.80;10.90;;;0.00;92.50;;;;;;4979978;28;20205;-91
2023/03/06 03:39:59;;;;;;;12.77;11.87;;;-0.10;92.40;;;;;;4979649;28;20181;-91
2023/03/06 03:42:25;;;;;;;13.63;12.23;;;0.00;92.40;;;;;;4979541;28;20181;-91
2023/03/06 03:44:50;;;;;;;13.63;12.60;;;-0.10;92.40;;;;;;4979702;28;20211;-91
2023/03/06 03:47:16;;;;;;;14.80;13.30;;;-0.30;92.20;;;;;;4979507;28;20704;-90
2023/03/06 03:49:41;;;;;;;14.50;13.00;;;-0.50;92.20;;;;;;4980008;28;20189;-91
2023/03/06 03:52:07;;;;;;;15.73;14.20;;;-0.60;92.40;;;;;;4979381;28;20561;-91
2023/03/06 03:54:33;;;;;;;18.47;13.77;;;-0.60;92.50;;;;;;4980098;28;20635;-91
2023/03/06 03:56:58;;;;;;;14.27;12.63;;;-0.50;92.60;;;;;;4980009;28;20666;-91
2023/03/06 03:59:24;;;;;;;17.80;13.90;;;-0.30;92.60;;;;;;4979667;28;20176;-91
2023/03/06 04:01:51;;;;;;;16.30;14.40;;;-0.60;92.40;;;;;;4979637;28;20171;-90
2023/03/06 04:04:16;;;;;;;15.83;14.33;;;-0.80;92.40;;;;;;4996842;28;20230;-91
2023/03/06 04:06:42;;;;;;;16.10;14.40;;;-0.80;92.60;;;;;;4979342;28;20319;-90
2023/03/06 04:09:08;;;;;;;16.47;14.63;;;-0.90;92.70;;;;;;4979513;28;20218;-91
2023/03/06 04:11:34;;;;;;;19.90;14.13;;;-0.80;92.80;;;;;;4979889;28;20184;-91
2023/03/06 04:13:59;;;;;;;16.37;13.87;;;-0.80;92.80;;;;;;4979335;28;20694;-91
2023/03/06 04:16:25;;;;;;;16.47;14.70;;;-0.90;92.80;;;;;;4979021;28;20208;-90
2023/03/06 04:18:50;;;;;;;16.10;14.40;;;-1.00;92.80;;;;;;4979039;28;20185;-90
2023/03/06 04:21:16;;;;;;;16.73;14.23;;;-1.00;93.10;;;;;;4979631;28;20635;-91
2023/03/06 04:23:42;;;;;;;19.97;13.63;;;-0.90;93.10;;;;;;4979680;28;20240;-91
2023/03/06 04:26:08;;;;;;;18.90;14.13;;;-0.90;93.30;;;;;;4979236;28;20178;-90
2023/03/06 04:28:34;;;;;;;16.47;14.67;;;-0.70;93.50;;;;;;4979493;28;20211;-91
2023/03/06 04:31:00;;;;;;;19.97;15.73;;;-0.70;93.40;;;;;;4979070;28;20215;-90
2023/03/06 04:33:25;;;;;;;15.70;14.10;;;-0.60;93.60;;;;;;4978807;28;20225;-91
2023/03/06 04:35:51;;;;;;;15.97;14.30;;;-0.40;93.60;;;;;;4979499;28;20218;-90
2023/03/06 04:38:17;;;;;;;16.57;14.83;;;-0.40;93.50;;;;;;4978644;28;20283;-91
2023/03/06 04:40:43;;;;;;;18.57;13.77;;;-0.60;93.40;;;;;;4978448;28;20618;-91
2023/03/06 04:43:08;;;;;;;17.97;13.17;;;-0.70;93.30;;;;;;4979072;28;20205;-91
2023/03/06 04:45:34;;;;;;;15.70;14.23;;;-0.90;93.30;;;;;;4978908;28;20191;-91
2023/03/06 04:48:00;;;;;;;14.10;12.80;;;-0.70;93.60;;;;;;4978670;28;20206;-91
2023/03/06 04:50:30;;;;;;;14.60;12.43;;;-0.60;93.50;;;;;;4978718;28;20600;-91
2023/03/06 04:52:55;;;;;;;14.17;12.83;;;-0.60;93.60;;;;;;4978474;28;20760;-91
2023/03/06 04:55:21;;;;;;;13.73;12.63;;;-0.70;93.40;;;;;;4978437;28;20262;-90
2023/03/06 04:57:47;;;;;;;15.57;14.27;;;-0.90;93.40;;;;;;4995778;28;20676;-91
2023/03/06 05:00:17;;;;;;;14.80;12.63;;;-0.80;93.50;;;;;;4978387;28;20204;-91
2023/03/06 05:02:43;;;;;;;15.03;12.17;;;-0.70;93.60;;;;;;4978922;28;20177;-91
2023/03/06 05:05:11;;;;;;;15.07;13.67;;;-0.80;93.40;;;;;;4978608;28;20181;-91
2023/03/06 05:07:37;;;;;;;18.27;16.43;;;-0.90;93.60;;;;;;4978710;28;20229;-91
2023/03/06 05:10:03;;;;;;;16.90;15.30;;;-0.80;93.80;;;;;;4978197;28;20185;-91
2023/03/06 05:12:34;;;;;;;17.80;16.03;;;-0.70;93.90;;;;;;4978524;28;20206;-91
2023/03/06 05:15:00;;;;;;;17.13;15.40;;;-0.50;94.20;;;;;;4979975;28;20219;-91
2023/03/06 05:17:26;;;;;;;18.43;16.70;;;-0.20;94.30;;;;;;4979203;28;20686;-91
2023/03/06 05:19:51;;;;;;;19.63;17.80;;;-0.10;94.40;;;;;;4979479;28;20543;-91
2023/03/06 05:22:20;;;;;;;25.17;22.73;;;0.00;94.40;;;;;;4979218;28;20229;-92
2023/03/06 05:24:48;;;;;;;23.57;21.33;;;0.00;94.50;;;;;;4979159;28;20175;-91
2023/03/06 05:27:14;;;;;;;22.20;19.90;;;0.00;94.60;;;;;;4978972;28;20284;-91
2023/03/06 05:29:40;;;;;;;24.43;22.33;;;0.00;94.70;;;;;;4979659;28;20208;-92
2023/03/06 05:32:06;;;;;;;27.40;24.47;;;0.00;94.80;;;;;;4979513;28;20195;-91
2023/03/06 05:34:32;;;;;;;44.93;26.77;;;0.00;94.90;;;;;;4979716;28;20237;-91
2023/03/06 05:37:00;;;;;;;36.97;26.03;;;0.00;94.90;;;;;;4978357;28;20199;-91
2023/03/06 05:39:27;;;;;;;29.80;25.37;;;0.00;95.00;;;;;;4979882;28;20175;-91
2023/03/06 05:41:53;;;;;;;46.50;27.77;;;0.00;95.10;;;;;;4979245;28;20641;-91
2023/03/06 05:44:19;;;;;;;31.77;24.50;;;0.00;95.20;;;;;;4979370;28;20203;-91
2023/03/06 05:46:47;;;;;;;39.80;27.50;;;0.00;95.30;;;;;;4979137;28;20337;-90
2023/03/06 05:49:13;;;;;;;41.77;27.03;;;0.00;95.30;;;;;;4978239;28;20609;-91
2023/03/06 05:51:39;;;;;;;35.27;28.37;;;0.00;95.30;;;;;;4978115;28;20230;-91
2023/03/06 05:54:08;;;;;;;39.13;28.10;;;0.10;95.30;;;;;;4978104;28;20262;-91
2023/03/06 05:56:33;;;;;;;38.73;27.00;;;0.10;95.30;;;;;;4977515;28;20201;-91
2023/03/06 05:58:59;;;;;;;36.57;27.93;;;0.10;95.30;;;;;;4977247;28;20190;-91
2023/03/06 06:01:27;;;;;;;33.50;28.87;;;0.20;95.40;;;;;;4995063;28;20172;-91
2023/03/06 06:03:52;;;;;;;33.80;29.23;;;0.10;95.30;;;;;;4977166;28;20183;-91
2023/03/06 06:06:18;;;;;;;38.30;28.33;;;0.10;95.40;;;;;;4977301;28;20191;-92
2023/03/06 06:08:44;;;;;;;34.50;27.90;;;0.10;95.40;;;;;;4977658;28;20185;-91
2023/03/06 06:11:11;;;;;;;31.50;28.17;;;0.10;95.40;;;;;;4977265;28;20549;-92
2023/03/06 06:13:37;;;;;;;30.97;27.77;;;0.10;95.40;;;;;;4977348;28;20617;-92
2023/03/06 06:16:11;;;;;;;30.87;27.87;;;0.10;95.40;;;;;;4977356;28;20214;-92
2023/03/06 06:18:37;;;;;;;30.53;26.67;;;0.00;95.40;;;;;;4977989;28;20222;-92
2023/03/06 06:21:08;;;;;;;42.07;28.27;;;0.10;95.50;;;;;;4977895;28;20549;-91
2023/03/06 06:23:34;;;;;;;30.73;27.43;;;0.10;95.50;;;;;;4995755;28;20176;-92
2023/03/06 06:26:04;;;;;;;41.77;29.00;;;0.10;95.50;;;;;;4976918;28;20655;-91
2023/03/06 06:28:30;;;;;;;44.23;27.50;;;0.00;95.50;;;;;;4977020;28;20672;-92
2023/03/06 06:30:56;;;;;;;30.90;27.97;;;0.10;95.50;;;;;;4995075;28;20259;-91
2023/03/06 06:33:22;;;;;;;56.70;29.90;;;0.10;95.60;;;;;;4978331;28;20763;-92
2023/03/06 06:35:49;;;;;;;57.93;28.87;;;0.10;95.60;;;;;;4976757;28;20223;-91
2023/03/06 06:38:14;;;;;;;47.00;28.13;;;0.10;95.60;;;;;;4977164;28;20224;-92
2023/03/06 06:40:40;;;;;;;62.63;29.30;;;0.10;95.70;;;;;;4978089;28;20323;-92
2023/03/06 06:43:06;;;;;;;37.70;27.40;;;0.10;95.70;;;;;;4977729;28;20179;-91
2023/03/06 06:45:32;;;;;;;36.80;27.83;;;0.10;95.70;;;;;;4977693;28;20284;-92
2023/03/06 06:47:57;;;;;;;31.50;28.17;;;0.10;95.70;;;;;;4977087;28;20604;-92
2023/03/06 06:50:23;;;;;;;32.33;28.97;;;0.10;95.70;;;;;;4977485;28;20188;-91
2023/03/06 06:52:49;;;;;;;34.00;30.37;;;0.10;95.80;;;;;;4977919;28;20639;-92
2023/03/06 06:55:15;;;;;;;33.50;29.97;;;0.20;95.80;;;;;;4977045;28;20186;-91
2023/03/06 06:57:41;;;;;;;32.47;28.93;;;0.20;95.80;;;;;;4976684;28;20290;-92
2023/03/06 07:00:08;;;;;;;41.27;32.03;;;0.20;95.80;;;;;;4977311;28;20187;-91
2023/03/06 07:02:34;;;;;;;35.67;30.27;;;0.30;95.80;;;;;;4978958;28;20239;-92
2023/03/06 07:05:00;;;;;;;42.40;31.17;;;0.30;95.80;;;;;;4980711;28;20179;-91
2023/03/06 07:07:25;;;;;;;39.97;33.00;;;0.30;95.80;;;;;;4980352;28;20211;-91
2023/03/06 07:09:51;;;;;;;38.03;33.07;;;0.30;95.80;;;;;;4980466;28;20190;-92
2023/03/06 07:12:17;;;;;;;38.27;33.30;;;0.30;95.90;;;;;;4980545;28;20222;-92
2023/03/06 07:14:42;;;;;;;37.20;33.23;;;0.30;95.90;;;;;;4981228;28;20494;-91
2023/03/06 07:17:08;;;;;;;35.97;32.20;;;0.30;95.90;;;;;;4980484;28;20193;-91
2023/03/06 07:19:34;;;;;;;37.77;33.93;;;0.40;95.90;;;;;;4980385;28;20176;-91
2023/03/06 07:22:00;;;;;;;37.90;33.87;;;0.30;95.90;;;;;;4981035;28;20180;-91
2023/03/06 07:24:26;;;;;;;34.00;30.73;;;0.30;95.90;;;;;;4980627;28;20190;-91
2023/03/06 07:26:52;;;;;;;40.93;36.47;;;0.30;95.90;;;;;;4980837;28;20232;-91
2023/03/06 07:29:17;;;;;;;37.57;33.53;;;0.30;95.90;;;;;;4979909;28;20544;-91
2023/03/06 07:31:43;;;;;;;39.53;35.67;;;0.40;96.00;;;;;;4997821;28;20163;-91
2023/03/06 07:34:12;;;;;;;39.63;35.80;;;0.40;96.00;;;;;;4980792;28;20205;-91
2023/03/06 07:36:39;;;;;;;43.87;39.43;;;0.40;95.90;;;;;;4980357;28;20194;-91
2023/03/06 07:39:06;;;;;;;39.40;35.37;;;0.40;95.90;;;;;;4979668;28;20180;-92
2023/03/06 07:41:31;;;;;;;40.43;36.30;;;0.50;96.00;;;;;;4979865;28;20571;-91
2023/03/06 07:43:57;;;;;;;45.67;40.60;;;0.50;95.90;;;;;;4997177;28;20183;-91
2023/03/06 07:46:23;;;;;;;42.20;37.70;;;0.50;95.90;;;;;;4980397;28;20176;-91
2023/03/06 07:48:48;;;;;;;39.83;35.73;;;0.40;95.90;;;;;;4979947;28;20713;-91
2023/03/06 07:51:17;;;;;;;42.40;38.07;;;0.40;95.90;;;;;;4980052;28;20601;-91
2023/03/06 07:53:43;;;;;;;42.47;37.87;;;0.40;95.90;;;;;;4979865;28;20210;-91
2023/03/06 07:56:10;;;;;;;42.37;38.17;;;0.50;95.90;;;;;;4979845;28;20181;-91
2023/03/06 07:58:36;;;;;;;43.77;39.30;;;0.50;95.90;;;;;;4979435;28;20200;-91
2023/03/06 08:01:04;;;;;;;44.93;40.50;;;0.60;95.90;;;;;;4980041;28;20178;-91
2023/03/06 08:03:29;;;;;;;44.13;39.77;;;0.60;95.90;;;;;;4979650;28;20246;-91
2023/03/06 08:06:13;;;;;;;46.13;41.63;;;0.50;95.90;;;;;;4980519;28;20637;-91
2023/03/06 08:08:40;;;;;;;46.13;41.70;;;0.50;95.90;;;;;;4996917;28;20699;-92
2023/03/06 08:11:08;;;;;;;48.83;42.73;;;0.60;95.90;;;;;;4979215;28;20174;-91
2023/03/06 08:13:34;;;;;;;43.33;39.30;;;0.60;95.90;;;;;;4978934;28;20208;-91
2023/03/06 08:16:00;;;;;;;46.10;41.23;;;0.60;95.90;;;;;;4979808;28;20177;-91
2023/03/06 08:18:26;;;;;;;47.57;42.83;;;0.60;95.90;;;;;;4979132;28;20698;-92
2023/03/06 08:21:11;;;;;;;47.37;42.47;;;0.60;95.80;;;;;;4981698;28;20177;-91
2023/03/06 08:23:36;;;;;;;47.80;43.30;;;0.60;95.80;;;;;;4981575;28;20548;-91
2023/03/06 08:26:09;;;;;;;49.23;44.70;;;0.70;95.80;;;;;;4986562;28;20197;-92
2023/03/06 08:28:35;;;;;;;50.80;46.03;;;0.70;95.80;;;;;;4985022;28;20208;-91
2023/03/06 08:31:19;;;;;;;48.20;43.73;;;0.70;95.70;;;;;;4979056;28;20180;-91
2023/03/06 08:33:44;;;;;;;49.77;44.73;;;0.70;95.80;;;;;;4979487;28;20270;-91
2023/03/06 08:36:10;;;;;;;48.70;43.83;;;0.80;95.70;;;;;;4979330;28;20177;-91
2023/03/06 08:38:35;;;;;;;47.03;42.70;;;0.90;95.70;;;;;;4978744;28;20197;-91
2023/03/06 08:41:01;;;;;;;46.63;42.30;;;0.80;95.60;;;;;;4978836;28;20211;-91
2023/03/06 08:43:26;;;;;;;44.80;40.47;;;0.80;95.60;;;;;;4978630;28;20318;-91
2023/03/06 08:45:53;;;;;;;47.57;43.53;;;0.80;95.60;;;;;;4978951;28;20237;-91
2023/03/06 08:48:19;;;;;;;43.57;39.63;;;0.80;95.60;;;;;;4978271;28;20239;-89
2023/03/06 08:50:45;;;;;;;45.67;41.67;;;0.80;95.40;;;;;;4995658;28;20645;-90
2023/03/06 08:53:10;;;;;;;44.23;40.50;;;0.70;95.40;;;;;;4978226;28;20296;-89
2023/03/06 08:55:37;;;;;;;44.37;40.40;;;0.80;95.50;;;;;;4978505;28;20180;-90
2023/03/06 08:58:03;;;;;;;44.03;40.13;;;0.90;95.40;;;;;;4978082;28;20314;-90
2023/03/06 09:00:29;;;;;;;45.13;41.13;;;0.90;95.30;;;;;;4978661;28;20195;-91
2023/03/06 09:02:55;;;;;;;41.80;38.20;;;1.00;95.30;;;;;;4978084;28;20281;-90
2023/03/06 09:05:20;;;;;;;41.80;38.23;;;1.10;95.30;;;;;;4978794;28;20224;-90
2023/03/06 09:07:46;;;;;;;38.53;35.30;;;1.10;95.20;;;;;;4995122;28;20206;-91
2023/03/06 09:10:17;;;;;;;37.97;34.87;;;1.10;95.20;;;;;;4977833;28;20181;-90
2023/03/06 09:12:43;;;;;;;40.90;37.50;;;1.10;95.10;;;;;;4977773;28;20244;-90
2023/03/06 09:15:09;;;;;;;41.23;37.37;;;1.20;95.00;;;;;;4977748;28;20212;-90
2023/03/06 09:17:34;;;;;;;41.00;37.50;;;1.30;94.90;;;;;;4977660;28;20201;-90
2023/03/06 09:20:00;;;;;;;40.00;36.50;;;1.30;94.90;;;;;;4977668;28;20188;-90
2023/03/06 09:22:26;;;;;;;40.00;36.67;;;1.30;94.80;;;;;;4977617;28;20249;-90
2023/03/06 09:24:52;;;;;;;39.43;35.73;;;1.30;94.80;;;;;;4976964;28;20192;-90
2023/03/06 09:27:18;;;;;;;38.57;35.20;;;1.40;94.70;;;;;;4977898;28;20198;-90
2023/03/06 09:29:44;;;;;;;36.73;33.60;;;1.30;94.50;;;;;;4977307;28;20240;-91
2023/03/06 09:32:09;;;;;;;38.80;35.33;;;1.50;94.60;;;;;;4977228;28;20211;-91
2023/03/06 09:34:35;;;;;;;36.00;33.07;;;1.60;94.50;;;;;;4977375;28;20204;-90
2023/03/06 09:37:04;;;;;;;34.90;32.10;;;1.60;94.30;;;;;;4977194;28;20701;-90
2023/03/06 09:39:29;;;;;;;36.27;33.17;;;1.70;94.20;;;;;;4977157;28;20632;-91
2023/03/06 09:41:58;;;;;;;34.37;30.83;;;1.80;94.10;;;;;;4977278;28;20183;-91
2023/03/06 09:44:26;;;;;;;34.17;31.03;;;1.90;94.10;;;;;;4977170;28;20656;-91
2023/03/06 09:47:24;;;;;;;34.40;31.07;;;1.90;93.90;;;;;;4977222;28;20194;-91
2023/03/06 09:49:49;;;;;;;32.40;29.60;;;1.90;93.70;;;;;;4995417;28;20573;-90
2023/03/06 09:52:44;;;;;;;32.97;30.30;;;2.00;93.60;;;;;;4977040;28;20292;-91
2023/03/06 09:55:23;;;;;;;33.13;29.93;;;2.10;93.60;;;;;;4995112;28;20162;-92
2023/03/06 09:57:57;;;;;;;30.03;27.53;;;2.10;93.40;;;;;;4977170;28;20233;-91
2023/03/06 10:00:32;;;;;;;32.60;30.10;;;2.10;93.30;;;;;;4977247;28;20271;-92
2023/03/06 10:03:17;;;;;;;31.67;29.03;;;2.10;93.10;;;;;;4977382;28;20219;-91
2023/03/06 10:05:57;;;;;;;31.63;29.13;;;2.30;93.00;;;;;;4977374;28;20184;-91
2023/03/06 10:08:24;;;;;;;27.70;25.30;;;2.50;93.10;;;;;;4978243;28;20205;-91
2023/03/06 10:10:55;;;;;;;25.87;23.43;;;2.40;92.60;;;;;;4976962;28;20254;-91
2023/03/06 10:13:34;;;;;;;27.50;25.13;;;2.40;92.10;;;;;;4976874;28;20272;-91
2023/03/06 10:16:11;;;;;;;28.40;25.90;;;2.40;91.90;;;;;;4977028;28;20174;-91
2023/03/06 10:18:49;;;;;;;28.13;25.83;;;2.50;92.00;;;;;;4977079;28;20173;-91
2023/03/06 10:21:55;;;;;;;26.60;24.27;;;2.70;92.00;;;;;;4994682;28;20181;-92
2023/03/06 10:24:53;;;;;;;24.43;22.20;;;2.90;91.80;;;;;;4979136;28;20192;-91
2023/03/06 10:27:31;;;;;;;19.77;18.33;;;3.00;91.20;;;;;;4977059;28;20328;-91
2023/03/06 10:30:34;;;;;;;22.07;20.23;;;3.10;90.60;;;;;;4976714;28;20186;-91
2023/03/06 10:33:08;;;;;;;19.03;17.57;;;3.30;90.70;;;;;;4993853;28;20258;-91
2023/03/06 10:35:47;;;;;;;19.27;17.80;;;3.20;89.20;;;;;;4993880;28;20163;-91
2023/03/06 10:38:24;;;;;;;17.73;16.37;;;3.30;88.70;;;;;;4999726;28;20193;-91
2023/03/06 10:41:12;;;;;;;18.17;16.40;;;3.60;88.10;;;;;;4983305;28;20170;-91
2023/03/06 10:43:39;;;;;;;17.40;15.93;;;3.60;87.00;;;;;;5004602;28;20167;-93
2023/03/06 10:46:07;;;;;;;18.67;17.27;;;3.70;86.90;;;;;;4983128;28;20185;-91
2023/03/06 10:48:37;;;;;;;22.23;19.87;;;3.90;86.70;;;;;;5000609;28;20200;-91
2023/03/06 10:51:17;;;;;;;18.90;17.30;;;4.00;86.10;;;;;;5000777;28;20277;-91
2023/03/06 10:53:53;;;;;;;16.37;14.90;;;4.20;86.30;;;;;;4983595;28;20248;-92
2023/03/06 10:56:26;;;;;;;18.43;16.83;;;4.30;84.90;;;;;;4983537;28;20174;-92
2023/03/06 10:59:24;;;;;;;15.47;14.07;;;4.30;84.50;;;;;;5000245;28;20176;-90
2023/03/06 11:02:39;;;;;;;14.07;12.97;;;4.30;83.40;;;;;;4982785;28;20325;-90
2023/03/06 11:05:17;;;;;;;17.07;15.60;;;4.40;82.10;;;;;;5000182;28;20629;-89
2023/03/06 11:07:54;;;;;;;16.20;14.70;;;4.30;81.90;;;;;;4982631;28;20198;-89
2023/03/06 11:10:20;;;;;;;17.10;15.97;;;4.50;83.00;;;;;;5002150;28;20177;-92
2023/03/06 11:13:01;;;;;;;18.40;17.00;;;4.30;81.20;;;;;;4984930;28;20294;-92
2023/03/06 11:15:28;;;;;;;16.87;15.70;;;4.30;75.40;;;;;;4985273;28;20169;-91
2023/03/06 11:18:19;;;;;;;16.80;15.40;;;4.80;77.70;;;;;;5000461;28;20248;-90
2023/03/06 11:20:48;;;;;;;15.97;14.97;;;4.90;77.40;;;;;;4983847;28;20170;-92
2023/03/06 11:23:16;;;;;;;17.00;15.57;;;4.70;77.80;;;;;;4982963;28;20177;-93
2023/03/06 11:26:00;;;;;;;16.63;15.13;;;4.30;79.50;;;;;;4983085;28;20181;-92
2023/03/06 11:28:33;;;;;;;14.73;13.40;;;4.30;79.80;;;;;;5000419;28;20197;-91
2023/03/06 11:31:16;;;;;;;14.10;12.90;;;4.50;80.70;;;;;;5000744;28;20252;-92
2023/03/06 11:33:46;;;;;;;16.53;15.13;;;4.70;80.70;;;;;;4999901;28;20279;-92
2023/03/06 11:36:24;;;;;;;18.20;16.27;;;4.50;77.40;;;;;;4986087;28;20180;-93
2023/03/06 11:38:52;;;;;;;16.63;15.10;;;4.50;78.80;;;;;;4988832;28;20177;-92
2023/03/06 11:41:36;;;;;;;15.37;13.87;;;4.60;78.50;;;;;;5000142;28;20217;-92
2023/03/06 11:44:42;;;;;;;16.27;14.87;;;4.70;75.50;;;;;;4982828;28;20203;-92
2023/03/06 11:47:18;;;;;;;13.57;12.40;;;4.80;76.20;;;;;;5000694;28;20197;-91
2023/03/06 11:49:54;;;;;;;14.73;13.53;;;5.10;77.80;;;;;;5000510;28;20168;-93
2023/03/06 11:52:53;;;;;;;19.23;17.50;;;5.30;76.80;;;;;;4985948;28;20292;-91
2023/03/06 11:55:48;;;;;;;18.77;17.37;;;5.00;76.90;;;;;;4997167;28;20243;-91
2023/03/06 11:58:51;;;;;;;19.40;17.80;;;5.40;77.60;;;;;;4998494;28;20194;-94
2023/03/06 12:01:39;;;;;;;19.90;18.43;;;5.30;76.80;;;;;;4984336;28;20220;-94
2023/03/06 12:04:16;;;;;;;16.30;14.43;;;5.20;73.90;;;;;;5002600;28;20166;-92
2023/03/06 12:07:03;;;;;;;24.97;22.70;;;5.40;74.80;;;;;;4990154;28;20292;-92
2023/03/06 12:09:43;;;;;;;21.77;20.27;;;5.10;69.90;;;;;;5008176;28;20164;-93
2023/03/06 12:12:33;;;;;;;19.97;18.30;;;5.20;73.00;;;;;;4996798;28;20692;-92
2023/03/06 12:15:35;;;;;;;18.50;16.77;;;5.40;74.30;;;;;;5002656;28;20154;-91
2023/03/06 12:18:19;;;;;;;18.80;17.30;;;5.70;73.60;;;;;;5072489;23;20237;-94
2023/03/06 12:20:54;;;;;;;18.20;16.67;;;5.80;74.80;;;;;;4980167;28;20193;-91
2023/03/06 12:23:35;;;;;;;19.03;17.57;;;5.90;76.10;;;;;;4981233;28;20173;-90
2023/03/06 12:26:25;;;;;;;18.23;16.70;;;5.70;75.50;;;;;;4978928;28;20217;-89
2023/03/06 12:29:15;;;;;;;20.07;18.03;;;5.30;76.10;;;;;;4959368;28;20171;-90
2023/03/06 12:32:20;;;;;;;20.90;19.50;;;5.30;76.10;;;;;;4959360;28;20166;-91
2023/03/06 12:35:17;;;;;;;19.00;17.60;;;5.20;75.80;;;;;;4928061;28;20198;-89
2023/03/06 12:38:24;;;;;;;21.57;19.57;;;5.60;75.70;;;;;;4976484;28;20273;-89
2023/03/06 12:40:56;;;;;;;20.80;19.13;;;5.70;73.10;;;;;;4976751;28;20303;-90
2023/03/06 12:43:57;;;;;;;21.20;19.33;;;6.00;72.50;;;;;;4976207;28;20163;-90
2023/03/06 12:46:25;;;;;;;19.37;17.73;;;6.00;72.30;;;;;;4976465;28;20171;-91
2023/03/06 12:48:57;;;;;;;20.30;18.63;;;6.30;73.40;;;;;;4959142;28;20237;-91
2023/03/06 12:51:23;;;;;;;20.63;19.13;;;6.10;71.10;;;;;;4958890;28;20167;-90